Airfield :







YOU CAN JOIN US ON...

 
LOGIN :

Register | Disclaimer

   EN    FR    IT 

 









Legend :    VFR   Marginal VFR   IFR   Intensive IFR   Very Intensive IFR
Visi :
Ceiling :
>= 8 km
>= 3000ft
5 to 8 km
1000 to 3000 ft
1500m to 5 km
500 to 1000 ft
800 to 1500m
200 to 500 ft
< 800m
< 200 ft
Symbols :   Thunderstorms  Fog  Heavy snow  Heavy precipitations  Wind > 20 kt






- Airport Elevation : 2042 ft
- IATA code : BRM


SVBM - Barquisimeto International

CURRENT METAR :
  • 092000Z 09006KT 9999 FEW016 30/18 Q1011

EXPIRED METARs :
  • 091900Z 09005KT 9999 FEW016 30/18 Q1012

TAF TAF SVBM
Valid from the 09 at 18:00 until the 10 at 18:00 UTC


091548Z 0918/1018 09010KT 9999 FEW013 CB SCT070 TX33/091800Z TN21/1008Z
BECMG 0920/1000 14018KT 9999 FEW016 CB SCT070



MET'MAP, your aeronautical weather chart ! - Copyright ORBIFLY December 2007 - Disclaimer

ORBIFLY MET'MAP TEAM :

Programming & Development : Alexandra Zaïnal
Concept & original design : Baudouin d'Aumeries
Assistance for programming : Marc-Olivier Méhu
Technical & hardware support : Manuel Goepfert

Contact : metmap@orbifly.com




SOURCES & CREDITS :

   NOAA